Time;durP1;ratioP1;P1;durP2;ratioP2;P2;SDS_P1;SDS_P2;PMS_P1;PMS_P2;Temp;Humidity;BMP_temperature;BMP_pressure;BME280_temperature;BME280_humidity;BME280_pressure;Samples;Min_cycle;Max_cycle;Signal;HPM_P1;HPM_P2
2022/09/20 00:03:12;;;;;;;3.97;3.70;;;12.30;99.90;;;;;;10404450;28;20647;-80
2022/09/20 00:08:16;;;;;;;4.30;3.80;;;12.40;99.90;;;;;;10394411;28;20662;-80
2022/09/20 00:13:18;;;;;;;4.00;3.47;;;12.50;99.90;;;;;;10403728;28;20249;-80
2022/09/20 00:18:21;;;;;;;3.63;3.43;;;12.50;99.90;;;;;;10391188;28;20194;-80
2022/09/20 00:23:23;;;;;;;5.40;3.47;;;12.50;99.90;;;;;;10386367;28;20313;-81
2022/09/20 00:28:26;;;;;;;4.63;4.23;;;12.50;99.90;;;;;;10389299;28;20194;-81
2022/09/20 00:38:45;;;;;;;4.00;3.70;;;12.50;99.90;;;;;;10403033;28;20688;-81
2022/09/20 00:43:47;;;;;;;4.33;3.50;;;12.50;99.90;;;;;;10394570;28;20210;-81
2022/09/20 00:48:53;;;;;;;4.07;3.80;;;12.50;99.90;;;;;;10419289;28;20186;-80
2022/09/20 00:53:58;;;;;;;4.13;3.30;;;12.50;99.90;;;;;;10410117;28;20317;-80
2022/09/20 00:59:06;;;;;;;6.73;3.20;;;12.50;99.90;;;;;;10398146;28;20199;-80
2022/09/20 01:04:10;;;;;;;4.27;3.13;;;12.50;99.90;;;;;;10372026;28;20230;-80
2022/09/20 01:09:12;;;;;;;3.67;3.37;;;12.50;99.90;;;;;;10350895;28;20283;-81
2022/09/20 01:14:17;;;;;;;5.93;3.10;;;12.50;99.90;;;;;;10357831;28;20223;-80
2022/09/20 01:19:34;;;;;;;3.00;2.90;;;12.50;99.90;;;;;;10368166;28;20197;-81
2022/09/20 01:24:42;;;;;;;3.77;3.33;;;12.50;99.90;;;;;;10399661;28;20777;-81
2022/09/20 01:30:01;;;;;;;7.93;7.20;;;12.50;99.90;;;;;;10396364;28;20277;-80
2022/09/20 01:35:04;;;;;;;7.20;5.70;;;12.60;99.90;;;;;;10394973;28;20276;-80
2022/09/20 01:40:12;;;;;;;9.13;5.97;;;12.60;99.90;;;;;;10386749;28;20205;-80
2022/09/20 01:45:22;;;;;;;5.67;4.00;;;12.60;99.90;;;;;;10406878;28;20285;-80
2022/09/20 01:50:33;;;;;;;3.77;3.47;;;12.60;99.90;;;;;;10416464;28;20644;-81
2022/09/20 01:56:03;;;;;;;3.40;3.20;;;12.60;99.90;;;;;;10409796;28;20221;-80
2022/09/20 02:01:38;;;;;;;5.83;4.30;;;12.60;99.90;;;;;;10398185;28;20206;-80
2022/09/20 02:07:06;;;;;;;5.43;4.93;;;12.60;99.90;;;;;;10402355;28;20248;-80
2022/09/20 02:12:28;;;;;;;3.90;3.43;;;12.60;99.90;;;;;;10385211;28;20205;-80
2022/09/20 02:17:40;;;;;;;4.90;4.40;;;12.60;99.90;;;;;;10407132;28;20336;-80
2022/09/20 02:23:02;;;;;;;4.10;3.70;;;12.60;99.90;;;;;;10384138;28;20226;-80
2022/09/20 02:28:17;;;;;;;4.17;3.70;;;12.60;99.90;;;;;;10395673;28;20212;-81
2022/09/20 02:33:47;;;;;;;3.77;3.50;;;12.70;99.90;;;;;;10412404;28;20301;-81
2022/09/20 02:38:59;;;;;;;12.10;7.23;;;12.70;99.90;;;;;;10377459;28;20253;-80
2022/09/20 02:44:07;;;;;;;5.20;4.60;;;12.80;99.90;;;;;;10335092;28;20738;-81
2022/09/20 02:49:15;;;;;;;6.47;5.80;;;12.80;99.90;;;;;;10330975;28;20675;-81
2022/09/20 02:54:25;;;;;;;4.50;4.07;;;12.90;99.90;;;;;;10414341;28;20245;-81
2022/09/20 02:59:36;;;;;;;3.73;3.40;;;12.90;99.90;;;;;;10376283;28;20282;-81
2022/09/20 03:04:55;;;;;;;7.20;4.40;;;12.90;99.90;;;;;;10412390;28;20230;-81
2022/09/20 03:10:10;;;;;;;10.30;8.47;;;12.90;99.90;;;;;;10377878;28;20381;-81
2022/09/20 03:15:22;;;;;;;5.87;5.13;;;12.90;99.90;;;;;;10410161;28;20663;-82
2022/09/20 03:20:38;;;;;;;12.33;9.00;;;12.80;99.90;;;;;;10387829;28;20275;-83
2022/09/20 03:25:50;;;;;;;7.40;6.70;;;12.80;99.90;;;;;;10421710;28;20218;-80
2022/09/20 03:31:00;;;;;;;8.27;5.80;;;12.70;99.90;;;;;;10417978;28;20688;-80
2022/09/20 03:36:17;;;;;;;4.50;4.10;;;12.70;99.90;;;;;;10388770;28;20214;-79
2022/09/20 03:41:37;;;;;;;6.20;5.80;;;12.70;99.90;;;;;;10392081;28;20240;-79
2022/09/20 03:46:45;;;;;;;7.03;5.57;;;12.70;99.90;;;;;;10392685;28;20253;-78
2022/09/20 03:51:59;;;;;;;5.43;5.03;;;12.70;99.90;;;;;;10416991;28;20191;-83
2022/09/20 03:57:29;;;;;;;5.60;5.20;;;12.70;99.90;;;;;;10408028;28;20221;-82
2022/09/20 04:03:03;;;;;;;5.53;5.20;;;12.70;99.90;;;;;;10407859;28;20265;-79
2022/09/20 04:08:18;;;;;;;4.90;4.60;;;12.80;99.90;;;;;;10388325;28;20203;-79
2022/09/20 04:13:32;;;;;;;5.93;3.50;;;12.70;99.90;;;;;;10412879;28;20240;-82
2022/09/20 04:18:41;;;;;;;4.73;4.43;;;12.70;99.90;;;;;;10401365;28;20203;-82
2022/09/20 04:23:52;;;;;;;5.80;5.40;;;12.70;99.90;;;;;;10385779;28;20268;-80
2022/09/20 04:28:58;;;;;;;5.90;5.50;;;12.70;99.90;;;;;;10393565;28;20198;-82
2022/09/20 04:34:04;;;;;;;5.73;5.43;;;12.80;99.90;;;;;;10391954;28;20221;-82
2022/09/20 04:39:21;;;;;;;9.50;8.63;;;12.80;99.90;;;;;;10383692;28;20198;-81
2022/09/20 04:44:52;;;;;;;5.90;5.60;;;12.90;99.90;;;;;;10405885;28;20279;-80
2022/09/20 04:50:46;;;;;;;10.13;7.00;;;12.90;99.90;;;;;;10387406;28;20253;-79
2022/09/20 04:55:54;;;;;;;10.80;10.10;;;12.80;99.90;;;;;;10413566;28;20221;-79
2022/09/20 05:01:28;;;;;;;13.07;12.13;;;12.60;99.90;;;;;;10382138;28;20245;-80
2022/09/20 05:06:56;;;;;;;14.60;13.57;;;12.50;99.90;;;;;;10374241;28;20234;-79
2022/09/20 05:12:33;;;;;;;16.27;15.10;;;12.40;99.90;;;;;;10359863;28;20272;-80
2022/09/20 05:17:44;;;;;;;14.67;13.63;;;12.30;99.90;;;;;;10414870;28;20288;-80
2022/09/20 05:23:19;;;;;;;17.90;16.50;;;12.30;99.90;;;;;;10392410;28;20226;-79
2022/09/20 05:28:29;;;;;;;9.87;9.07;;;12.30;99.90;;;;;;10402624;28;20209;-80
2022/09/20 05:33:38;;;;;;;14.93;14.20;;;12.30;99.90;;;;;;10391428;28;20261;-80
2022/09/20 05:38:47;;;;;;;14.20;13.20;;;12.20;99.90;;;;;;10394145;28;20194;-80
2022/09/20 05:44:03;;;;;;;14.80;13.90;;;12.20;99.90;;;;;;10404946;28;20286;-80
2022/09/20 05:49:15;;;;;;;16.67;15.73;;;12.20;99.90;;;;;;10394254;28;20267;-79
2022/09/20 05:54:30;;;;;;;55.20;34.30;;;12.20;99.90;;;;;;10405418;28;20278;-78
2022/09/20 05:59:44;;;;;;;19.03;17.50;;;12.20;99.90;;;;;;10392488;28;20631;-79
2022/09/20 06:04:58;;;;;;;14.17;12.97;;;12.20;99.90;;;;;;10401284;28;20222;-79
2022/09/20 06:10:35;;;;;;;17.80;16.40;;;12.20;99.90;;;;;;10392718;28;20194;-79
2022/09/20 06:15:45;;;;;;;13.30;12.30;;;12.30;99.90;;;;;;10387324;28;20293;-78
2022/09/20 06:20:56;;;;;;;22.83;19.27;;;12.40;99.90;;;;;;10399997;28;20229;-78
2022/09/20 06:26:06;;;;;;;48.00;24.20;;;12.50;99.90;;;;;;10393600;28;20218;-78
2022/09/20 06:31:10;;;;;;;46.17;28.97;;;12.60;99.90;;;;;;10367382;28;20198;-79
2022/09/20 06:41:37;;;;;;;14.53;13.17;;;12.60;99.90;;;;;;10382748;28;20281;-79
2022/09/20 06:46:41;;;;;;;13.53;12.30;;;12.60;99.90;;;;;;10409003;28;20279;-79
2022/09/20 06:51:43;;;;;;;12.33;11.53;;;12.60;99.90;;;;;;10387036;28;20293;-78
2022/09/20 06:56:46;;;;;;;12.77;12.03;;;12.60;99.90;;;;;;10404148;28;20230;-79
2022/09/20 07:01:49;;;;;;;12.57;11.37;;;12.70;99.90;;;;;;10388648;28;20214;-79
2022/09/20 07:06:52;;;;;;;11.90;11.00;;;12.70;99.90;;;;;;10412627;28;20630;-79
2022/09/20 07:11:54;;;;;;;12.67;11.40;;;12.70;99.90;;;;;;10395861;28;20616;-79
2022/09/20 07:16:59;;;;;;;11.73;10.60;;;12.70;99.90;;;;;;10409338;28;20300;-79
2022/09/20 07:22:01;;;;;;;11.30;10.40;;;12.80;99.90;;;;;;10395096;28;20214;-79
2022/09/20 07:27:07;;;;;;;10.90;9.97;;;12.80;99.90;;;;;;10392876;28;20297;-78
2022/09/20 07:32:11;;;;;;;12.17;11.10;;;13.00;99.90;;;;;;10411058;28;20190;-78
2022/09/20 07:37:13;;;;;;;11.90;11.00;;;13.10;99.90;;;;;;10396459;28;20214;-80
2022/09/20 07:42:15;;;;;;;11.60;10.60;;;13.30;99.90;;;;;;10411850;28;20742;-81
2022/09/20 07:47:18;;;;;;;10.87;9.30;;;13.30;99.90;;;;;;10400108;28;20769;-80
2022/09/20 07:52:20;;;;;;;9.40;8.60;;;13.40;99.90;;;;;;10410678;28;20657;-80
2022/09/20 07:57:23;;;;;;;9.03;8.33;;;13.40;99.90;;;;;;10402184;28;20693;-80
2022/09/20 08:02:26;;;;;;;8.87;8.10;;;13.50;99.90;;;;;;10416074;28;20579;-80
2022/09/20 08:07:29;;;;;;;8.87;8.07;;;13.50;99.90;;;;;;10403996;28;20680;-79
2022/09/20 08:12:32;;;;;;;11.37;7.43;;;13.50;99.90;;;;;;10407843;28;20194;-78
2022/09/20 08:17:35;;;;;;;7.60;6.90;;;13.60;99.90;;;;;;10397180;28;20230;-80
2022/09/20 08:22:42;;;;;;;9.93;8.47;;;13.80;99.90;;;;;;10405480;28;20233;-80
2022/09/20 08:27:44;;;;;;;7.53;7.00;;;14.00;99.90;;;;;;10417189;28;20296;-80
2022/09/20 08:32:47;;;;;;;7.17;6.47;;;14.20;99.90;;;;;;10396448;28;20198;-80
2022/09/20 08:37:55;;;;;;;7.60;6.93;;;14.20;99.90;;;;;;10403216;28;20497;-80
2022/09/20 08:42:57;;;;;;;11.40;6.87;;;14.20;99.90;;;;;;10395392;28;20226;-79
2022/09/20 08:48:05;;;;;;;6.67;6.07;;;14.20;99.90;;;;;;10404340;28;20217;-80
2022/09/20 08:53:11;;;;;;;5.93;5.53;;;14.40;99.90;;;;;;10397889;28;20285;-80
2022/09/20 08:58:14;;;;;;;6.93;6.47;;;14.60;99.90;;;;;;10387926;28;20201;-81
2022/09/20 09:03:19;;;;;;;7.73;5.73;;;14.80;99.90;;;;;;10397983;28;20257;-81
2022/09/20 09:08:26;;;;;;;10.93;6.23;;;14.90;99.90;;;;;;10412569;28;20205;-81
2022/09/20 09:13:34;;;;;;;6.07;5.40;;;15.10;99.90;;;;;;10421531;22;20272;-80
2022/09/20 09:18:43;;;;;;;5.90;5.60;;;15.20;99.90;;;;;;10416987;28;20240;-81
2022/09/20 09:23:51;;;;;;;7.67;5.87;;;15.30;99.90;;;;;;10430786;28;20668;-81
2022/09/20 09:29:16;;;;;;;6.57;5.83;;;15.20;99.90;;;;;;10421682;28;20645;-81
2022/09/20 09:34:27;;;;;;;5.70;5.17;;;15.10;99.90;;;;;;10361658;28;20225;-80
2022/09/20 09:39:58;;;;;;;4.27;3.93;;;15.00;99.90;;;;;;10359039;28;20286;-81
2022/09/20 09:45:47;;;;;;;6.00;5.50;;;15.00;99.90;;;;;;10338509;28;20245;-80
2022/09/20 09:51:28;;;;;;;7.00;5.43;;;15.30;99.90;;;;;;10366362;28;20218;-81
2022/09/20 09:56:46;;;;;;;4.30;3.80;;;15.60;99.90;;;;;;10357429;28;20707;-81
2022/09/20 10:01:59;;;;;;;6.57;5.10;;;15.60;99.90;;;;;;10372422;28;20195;-82
2022/09/20 10:07:11;;;;;;;6.73;5.80;;;15.60;99.90;;;;;;10356516;28;20211;-82
2022/09/20 10:12:25;;;;;;;5.87;5.43;;;15.50;99.90;;;;;;10367775;28;20245;-81
2022/09/20 10:17:39;;;;;;;5.57;5.10;;;15.70;99.90;;;;;;10366847;28;20248;-81
2022/09/20 10:22:55;;;;;;;5.03;4.63;;;15.90;99.90;;;;;;10360999;28;20239;-81
2022/09/20 10:28:12;;;;;;;5.10;4.70;;;16.10;99.90;;;;;;10364246;28;20301;-82
2022/09/20 10:33:24;;;;;;;7.10;5.57;;;16.30;99.90;;;;;;10344591;28;20190;-82
2022/09/20 10:38:32;;;;;;;5.43;5.03;;;16.40;99.90;;;;;;10397705;28;20206;-81
2022/09/20 10:43:51;;;;;;;5.43;5.10;;;16.50;99.90;;;;;;10415547;28;20272;-82
2022/09/20 10:49:03;;;;;;;6.40;5.80;;;16.70;98.70;;;;;;10385253;28;20206;-82
2022/09/20 10:54:18;;;;;;;5.67;5.17;;;16.80;99.30;;;;;;10399814;28;20210;-81
2022/09/20 10:59:32;;;;;;;4.87;4.63;;;16.90;98.90;;;;;;10380176;28;20240;-81
2022/09/20 11:04:53;;;;;;;6.23;5.47;;;16.90;97.30;;;;;;10375300;28;20219;-81
2022/09/20 11:10:01;;;;;;;4.90;4.50;;;17.00;97.00;;;;;;10371276;28;20199;-81
2022/09/20 11:15:14;;;;;;;6.53;5.33;;;17.00;95.80;;;;;;10395798;28;20230;-82
2022/09/20 11:20:21;;;;;;;7.50;5.30;;;17.10;96.50;;;;;;10409317;28;20612;-82
2022/09/20 11:25:33;;;;;;;5.40;4.90;;;17.20;96.40;;;;;;10392892;28;20614;-82
2022/09/20 11:30:42;;;;;;;5.87;5.30;;;17.40;96.70;;;;;;10382760;28;20209;-81
2022/09/20 11:35:47;;;;;;;5.40;5.10;;;17.30;96.70;;;;;;10407859;28;20222;-82
2022/09/20 11:41:00;;;;;;;5.57;5.07;;;17.00;96.30;;;;;;10378674;28;20229;-82
2022/09/20 11:46:25;;;;;;;5.00;4.50;;;16.80;94.40;;;;;;10372260;28;20223;-81
2022/09/20 11:52:27;;;;;;;5.33;4.90;;;16.60;93.20;;;;;;10395892;28;20233;-82
2022/09/20 11:57:31;;;;;;;5.70;5.23;;;16.30;93.70;;;;;;10336357;28;20233;-80
2022/09/20 12:02:36;;;;;;;6.73;5.47;;;16.20;95.30;;;;;;10381688;28;20225;-83
2022/09/20 12:07:41;;;;;;;5.00;4.70;;;16.10;94.40;;;;;;10391615;28;20225;-82
2022/09/20 12:12:47;;;;;;;4.93;4.53;;;16.00;95.40;;;;;;10388506;28;20259;-82
2022/09/20 12:18:26;;;;;;;4.87;4.47;;;16.10;95.70;;;;;;10363528;28;20288;-80
2022/09/20 12:24:00;;;;;;;4.53;4.17;;;16.20;94.30;;;;;;10357958;28;20222;-81
2022/09/20 12:29:54;;;;;;;5.70;5.20;;;16.30;92.40;;;;;;10382403;28;20210;-81
2022/09/20 12:34:57;;;;;;;5.20;4.90;;;16.10;92.20;;;;;;10383932;28;20305;-81
2022/09/20 12:39:59;;;;;;;5.93;5.20;;;16.00;92.80;;;;;;10377351;28;20330;-80
2022/09/20 12:45:06;;;;;;;5.63;5.13;;;15.90;90.30;;;;;;10383493;28;20253;-80
2022/09/20 12:55:42;;;;;;;5.90;5.40;;;15.70;93.90;;;;;;10406418;28;20219;-80
2022/09/20 13:00:47;;;;;;;6.03;5.60;;;15.80;95.70;;;;;;10365579;28;20718;-80
2022/09/20 13:06:11;;;;;;;5.60;5.10;;;15.90;94.90;;;;;;10377876;28;20239;-80
2022/09/20 13:11:18;;;;;;;4.83;4.40;;;16.00;92.10;;;;;;10396276;28;20250;-80
2022/09/20 13:16:25;;;;;;;6.50;5.00;;;16.00;91.80;;;;;;10393159;28;20215;-80
2022/09/20 13:21:31;;;;;;;4.90;4.43;;;15.90;91.90;;;;;;10390967;28;20281;-80
2022/09/20 13:26:39;;;;;;;4.80;4.60;;;16.00;92.10;;;;;;10396204;28;20701;-81
2022/09/20 13:31:41;;;;;;;4.40;4.20;;;16.00;92.40;;;;;;10404132;28;20603;-80
2022/09/20 13:36:46;;;;;;;4.80;4.40;;;16.10;92.40;;;;;;10407808;28;20288;-80
2022/09/20 13:41:49;;;;;;;4.93;4.53;;;16.20;91.00;;;;;;10420020;28;20195;-80
2022/09/20 13:46:51;;;;;;;4.90;4.50;;;16.20;92.10;;;;;;10381133;28;20255;-80
2022/09/20 13:51:55;;;;;;;6.43;4.70;;;16.40;91.70;;;;;;10414326;28;20205;-81
2022/09/20 13:57:00;;;;;;;5.63;5.23;;;16.50;93.20;;;;;;10437329;28;20213;-79
2022/09/20 14:02:03;;;;;;;5.53;5.03;;;16.60;92.50;;;;;;10420031;28;20225;-80
2022/09/20 14:07:08;;;;;;;5.50;5.10;;;16.70;92.70;;;;;;10392933;28;20229;-80
2022/09/20 14:12:12;;;;;;;5.73;5.33;;;16.70;91.30;;;;;;10404024;28;20194;-80
2022/09/20 14:17:18;;;;;;;5.00;4.60;;;16.50;93.40;;;;;;10392559;28;20359;-81
2022/09/20 14:22:25;;;;;;;5.30;5.00;;;16.40;93.50;;;;;;10423211;28;20229;-80
2022/09/20 14:27:30;;;;;;;5.23;4.77;;;16.30;92.90;;;;;;10401951;28;20232;-80
2022/09/20 14:32:39;;;;;;;4.87;4.57;;;16.20;93.20;;;;;;10391760;28;20194;-80
2022/09/20 14:37:45;;;;;;;4.83;4.53;;;16.10;92.30;;;;;;10396566;28;20237;-80
2022/09/20 14:42:49;;;;;;;3.67;3.20;;;16.00;93.00;;;;;;10412545;28;20195;-80
2022/09/20 14:47:58;;;;;;;5.00;4.70;;;16.00;93.10;;;;;;10349714;28;20219;-80
2022/09/20 14:53:25;;;;;;;5.13;4.83;;;15.90;93.50;;;;;;10380214;28;20240;-80
2022/09/20 14:58:28;;;;;;;5.00;4.50;;;15.90;94.10;;;;;;10394808;28;20249;-80
2022/09/20 15:03:32;;;;;;;5.70;5.27;;;16.00;95.30;;;;;;10404567;28;20221;-80
2022/09/20 15:08:38;;;;;;;3.97;3.63;;;16.00;94.70;;;;;;10419389;28;20271;-81
2022/09/20 15:13:41;;;;;;;6.03;5.60;;;16.00;93.80;;;;;;10401494;28;20611;-81
2022/09/20 15:18:44;;;;;;;5.90;5.40;;;16.00;93.20;;;;;;10416485;23;20651;-78
2022/09/20 15:23:47;;;;;;;5.10;4.80;;;16.10;92.10;;;;;;10406374;28;20210;-79
2022/09/20 15:28:49;;;;;;;5.33;5.03;;;16.10;92.40;;;;;;10338611;28;20269;-78
2022/09/20 15:33:51;;;;;;;3.83;3.63;;;16.10;90.40;;;;;;10353841;28;20194;-78
2022/09/20 15:38:55;;;;;;;6.00;5.70;;;16.20;90.70;;;;;;10361135;28;20223;-79
2022/09/20 15:43:57;;;;;;;3.90;3.60;;;16.20;91.80;;;;;;10354776;28;20207;-79
2022/09/20 15:49:01;;;;;;;4.80;4.60;;;16.10;91.20;;;;;;10362804;28;20215;-79
2022/09/20 15:54:06;;;;;;;4.70;4.50;;;16.10;92.80;;;;;;10352422;28;20219;-78
2022/09/20 15:59:10;;;;;;;3.30;3.10;;;16.10;90.60;;;;;;10360312;28;20195;-79
2022/09/20 16:04:14;;;;;;;4.77;4.57;;;16.00;91.00;;;;;;10359987;28;20309;-79
2022/09/20 16:09:18;;;;;;;3.97;3.67;;;15.90;91.50;;;;;;10351878;28;20194;-79
2022/09/20 16:14:20;;;;;;;4.27;4.00;;;15.80;91.30;;;;;;10363486;28;20253;-79
2022/09/20 16:19:24;;;;;;;3.80;3.60;;;15.70;92.00;;;;;;10355283;28;20273;-79
2022/09/20 16:24:29;;;;;;;4.90;4.50;;;15.60;92.80;;;;;;10364100;28;20227;-80
2022/09/20 16:29:31;;;;;;;5.20;4.90;;;15.50;92.60;;;;;;10352269;28;20245;-79
2022/09/20 16:34:35;;;;;;;5.30;5.00;;;15.50;94.00;;;;;;10361667;28;20522;-78
2022/09/20 16:39:40;;;;;;;4.60;4.30;;;15.40;94.50;;;;;;10352455;28;20203;-78
2022/09/20 16:44:43;;;;;;;4.60;4.40;;;15.40;93.20;;;;;;10362648;28;20219;-79
2022/09/20 16:49:47;;;;;;;5.30;5.00;;;15.30;95.20;;;;;;10346792;28;20199;-79
2022/09/20 16:54:50;;;;;;;5.40;5.10;;;15.20;93.00;;;;;;10365015;28;20746;-79
2022/09/20 16:59:54;;;;;;;4.30;4.00;;;15.20;94.80;;;;;;10352239;28;20202;-79
2022/09/20 17:04:56;;;;;;;5.17;4.87;;;15.10;93.60;;;;;;10362183;28;20223;-79
2022/09/20 17:10:00;;;;;;;4.87;4.50;;;15.10;95.00;;;;;;10345826;28;20229;-79
2022/09/20 17:15:02;;;;;;;6.17;5.77;;;15.10;95.80;;;;;;10360121;28;20218;-79
2022/09/20 17:20:06;;;;;;;5.50;5.20;;;15.10;95.90;;;;;;10343650;28;20207;-78
2022/09/20 17:25:10;;;;;;;6.40;6.00;;;15.00;95.50;;;;;;10360807;28;20249;-78
2022/09/20 17:30:12;;;;;;;6.73;6.03;;;15.00;96.30;;;;;;10343937;28;20241;-79
2022/09/20 17:35:15;;;;;;;6.67;6.07;;;15.00;96.60;;;;;;10375520;28;20666;-78
2022/09/20 17:40:19;;;;;;;11.03;10.00;;;14.90;96.30;;;;;;10346522;28;20199;-79
2022/09/20 17:45:21;;;;;;;14.07;12.23;;;14.90;95.70;;;;;;10346525;28;20222;-78
2022/09/20 17:50:23;;;;;;;7.73;7.13;;;14.80;95.50;;;;;;10364894;28;20309;-78
2022/09/20 17:55:27;;;;;;;6.70;6.10;;;14.70;94.90;;;;;;10347297;28;20206;-78
2022/09/20 18:00:29;;;;;;;7.20;6.00;;;14.60;95.20;;;;;;10364825;28;20293;-78
2022/09/20 18:05:31;;;;;;;9.67;8.00;;;14.40;96.20;;;;;;10345084;28;20541;-78
2022/09/20 18:10:34;;;;;;;7.60;6.90;;;14.30;96.80;;;;;;10367066;28;20282;-78
2022/09/20 18:15:36;;;;;;;14.63;10.47;;;14.20;97.30;;;;;;10334643;28;20211;-77
2022/09/20 18:20:38;;;;;;;9.40;8.50;;;14.10;97.80;;;;;;10339392;28;20647;-78
2022/09/20 18:31:03;;;;;;;7.80;7.20;;;14.00;98.10;;;;;;10340466;28;20244;-78
2022/09/20 18:36:06;;;;;;;8.83;7.97;;;13.90;98.00;;;;;;10358965;28;20273;-78
2022/09/20 18:41:12;;;;;;;8.90;8.00;;;13.80;98.30;;;;;;10340045;28;20667;-78
2022/09/20 18:46:14;;;;;;;7.60;7.10;;;13.70;98.50;;;;;;10358460;28;20223;-78
2022/09/20 18:51:17;;;;;;;7.93;7.20;;;13.70;98.40;;;;;;10338046;28;20222;-78
2022/09/20 18:56:26;;;;;;;7.07;6.43;;;13.60;98.70;;;;;;10369209;28;20247;-78
2022/09/20 19:01:48;;;;;;;7.50;6.97;;;13.50;99.10;;;;;;10365636;28;20195;-79
2022/09/20 19:07:00;;;;;;;8.17;7.47;;;13.40;98.90;;;;;;10348713;28;20321;-78
2022/09/20 19:12:08;;;;;;;8.00;7.47;;;13.40;99.10;;;;;;10364331;28;20628;-78
2022/09/20 19:17:11;;;;;;;10.07;6.43;;;13.30;99.30;;;;;;10337403;28;20587;-78
2022/09/20 19:22:23;;;;;;;7.43;6.90;;;13.30;99.50;;;;;;10354452;28;20293;-78
2022/09/20 19:27:27;;;;;;;7.10;6.47;;;13.20;99.90;;;;;;10361965;28;20223;-78
2022/09/20 19:32:29;;;;;;;6.30;5.90;;;13.30;99.30;;;;;;10351579;28;20197;-78
2022/09/20 19:37:36;;;;;;;7.43;6.77;;;13.30;98.90;;;;;;10361189;28;20218;-78
2022/09/20 19:42:51;;;;;;;7.70;6.90;;;13.30;99.40;;;;;;10355324;28;20203;-78
2022/09/20 19:48:03;;;;;;;6.43;5.80;;;13.20;99.90;;;;;;10366085;28;20226;-79
2022/09/20 19:53:06;;;;;;;6.63;6.13;;;13.20;99.90;;;;;;10356541;28;20233;-79
2022/09/20 19:58:10;;;;;;;7.13;6.63;;;13.20;99.90;;;;;;10370788;28;20570;-79
2022/09/20 20:03:14;;;;;;;5.77;5.30;;;13.20;99.90;;;;;;10365082;28;20203;-77
2022/09/20 20:08:20;;;;;;;6.30;5.90;;;13.10;99.90;;;;;;10356609;28;20602;-78
2022/09/20 20:19:05;;;;;;;5.93;5.33;;;13.00;99.90;;;;;;10361189;28;20222;-79
2022/09/20 20:24:19;;;;;;;6.80;6.30;;;13.00;99.90;;;;;;10360549;28;20201;-78
2022/09/20 20:29:22;;;;;;;6.30;5.80;;;12.90;99.90;;;;;;10365859;28;20199;-77
2022/09/20 20:34:25;;;;;;;6.37;5.87;;;12.90;99.90;;;;;;10364328;28;20317;-79
2022/09/20 20:39:30;;;;;;;6.07;5.67;;;12.80;99.90;;;;;;10371698;28;20226;-77
2022/09/20 20:44:34;;;;;;;5.67;5.27;;;12.80;99.90;;;;;;10346139;28;20216;-77
2022/09/20 20:49:36;;;;;;;6.90;5.17;;;12.70;99.90;;;;;;10291399;28;20621;-77
2022/09/20 20:54:38;;;;;;;6.57;5.87;;;12.70;99.90;;;;;;10330965;28;20215;-78
2022/09/20 20:59:41;;;;;;;6.30;4.63;;;12.60;99.90;;;;;;10353257;28;20199;-77
2022/09/20 21:04:43;;;;;;;7.13;4.30;;;12.60;99.90;;;;;;10370749;28;20217;-77
2022/09/20 21:09:45;;;;;;;6.70;5.70;;;12.50;99.90;;;;;;10351953;28;20222;-77
2022/09/20 21:14:49;;;;;;;5.90;4.80;;;12.50;99.90;;;;;;10342083;28;20274;-78
2022/09/20 21:19:51;;;;;;;5.33;4.83;;;12.50;99.90;;;;;;10350643;28;20654;-76
2022/09/20 21:24:54;;;;;;;5.37;4.97;;;12.40;99.90;;;;;;10352169;28;20219;-78
2022/09/20 21:29:57;;;;;;;5.80;4.60;;;12.40;99.90;;;;;;10353894;28;20222;-78
2022/09/20 21:34:59;;;;;;;4.80;4.33;;;12.50;99.90;;;;;;10356760;28;20219;-77
2022/09/20 21:40:02;;;;;;;5.23;4.70;;;12.40;99.90;;;;;;10352595;28;20638;-77
2022/09/20 21:45:09;;;;;;;6.10;5.47;;;12.40;99.90;;;;;;10357442;28;20297;-78
2022/09/20 21:50:11;;;;;;;5.53;4.73;;;12.30;99.90;;;;;;10350065;28;20202;-77
2022/09/20 21:55:13;;;;;;;5.43;5.00;;;12.20;99.90;;;;;;10354445;28;20380;-77
2022/09/20 22:00:17;;;;;;;5.73;5.00;;;12.20;99.90;;;;;;10353215;28;20622;-77
2022/09/20 22:05:20;;;;;;;5.20;4.80;;;12.10;99.90;;;;;;10348103;28;20213;-77
2022/09/20 22:10:22;;;;;;;5.17;4.77;;;12.10;99.90;;;;;;10371141;28;20666;-77
2022/09/20 22:15:25;;;;;;;6.20;5.60;;;12.10;99.90;;;;;;10353954;28;20220;-77
2022/09/20 22:20:27;;;;;;;6.20;5.60;;;12.10;99.90;;;;;;10345178;28;20706;-77
2022/09/20 22:25:33;;;;;;;5.60;5.10;;;12.10;99.90;;;;;;10354062;28;20221;-77
2022/09/20 22:30:36;;;;;;;6.20;5.60;;;12.00;99.90;;;;;;10329427;28;20622;-77
2022/09/20 22:35:44;;;;;;;4.50;4.20;;;12.00;99.90;;;;;;10337559;28;20678;-77
2022/09/20 22:40:53;;;;;;;25.60;15.13;;;12.00;99.90;;;;;;10352341;28;20636;-77
2022/09/20 22:46:02;;;;;;;20.50;12.90;;;12.00;99.90;;;;;;10345271;28;21221;-77
2022/09/20 22:51:06;;;;;;;4.77;4.37;;;11.90;99.90;;;;;;10351566;28;20226;-77
2022/09/20 22:56:10;;;;;;;7.93;6.33;;;11.90;99.90;;;;;;10336619;28;20295;-78
2022/09/20 23:01:15;;;;;;;14.30;8.10;;;11.80;99.90;;;;;;10344367;28;20199;-77
2022/09/20 23:06:19;;;;;;;5.50;4.90;;;11.70;99.90;;;;;;10352055;28;20626;-77
2022/09/20 23:11:22;;;;;;;20.67;9.23;;;11.70;99.90;;;;;;10345263;28;20198;-78
2022/09/20 23:16:27;;;;;;;6.07;4.80;;;11.60;99.90;;;;;;10355306;28;20774;-77
2022/09/20 23:21:29;;;;;;;6.20;5.53;;;11.50;99.90;;;;;;10343959;28;20310;-77
2022/09/20 23:26:34;;;;;;;8.93;4.87;;;11.50;99.90;;;;;;10352349;28;20226;-78
2022/09/20 23:31:38;;;;;;;6.07;5.30;;;11.50;99.90;;;;;;10332945;28;20206;-77
2022/09/20 23:36:42;;;;;;;5.30;4.90;;;11.50;99.90;;;;;;10325522;28;20214;-77
2022/09/20 23:41:44;;;;;;;14.30;9.03;;;11.50;99.90;;;;;;10329030;28;20226;-77
2022/09/20 23:46:47;;;;;;;28.47;13.03;;;11.50;99.90;;;;;;10332601;28;20311;-77
2022/09/20 23:51:49;;;;;;;11.17;7.70;;;11.50;99.90;;;;;;10331841;28;20290;-77
2022/09/20 23:56:51;;;;;;;7.23;5.10;;;11.50;99.90;;;;;;10372519;28;20663;-77
